sensor_id;sensor_type;location;lat;lon;timestamp;P1;durP1;ratioP1;P2;durP2;ratioP2
50683;SDS011;36654;45.042;38.994;2022-12-18T00:01:19;13.32;;;7.63;;
50683;SDS011;36654;45.042;38.994;2022-12-18T00:03:48;13.20;;;8.10;;
50683;SDS011;36654;45.042;38.994;2022-12-18T00:06:14;13.88;;;8.43;;
50683;SDS011;36654;45.042;38.994;2022-12-18T00:08:41;12.88;;;7.57;;
50683;SDS011;36654;45.042;38.994;2022-12-18T00:11:07;14.38;;;8.93;;
50683;SDS011;36654;45.042;38.994;2022-12-18T00:16:02;13.48;;;8.02;;
50683;SDS011;36654;45.042;38.994;2022-12-18T00:18:29;11.75;;;7.30;;
50683;SDS011;36654;45.042;38.994;2022-12-18T00:20:57;13.85;;;6.88;;
50683;SDS011;36654;45.042;38.994;2022-12-18T00:23:26;13.80;;;8.30;;
50683;SDS011;36654;45.042;38.994;2022-12-18T00:25:52;18.73;;;9.73;;
50683;SDS011;36654;45.042;38.994;2022-12-18T00:28:18;11.80;;;7.80;;
50683;SDS011;36654;45.042;38.994;2022-12-18T00:30:44;13.40;;;8.00;;
50683;SDS011;36654;45.042;38.994;2022-12-18T00:33:09;12.52;;;7.60;;
50683;SDS011;36654;45.042;38.994;2022-12-18T00:35:35;14.18;;;7.93;;
50683;SDS011;36654;45.042;38.994;2022-12-18T00:38:00;14.45;;;8.48;;
50683;SDS011;36654;45.042;38.994;2022-12-18T00:40:26;22.67;;;10.40;;
50683;SDS011;36654;45.042;38.994;2022-12-18T00:42:52;18.42;;;9.20;;
50683;SDS011;36654;45.042;38.994;2022-12-18T00:45:24;17.08;;;9.52;;
50683;SDS011;36654;45.042;38.994;2022-12-18T00:47:51;18.17;;;9.85;;
50683;SDS011;36654;45.042;38.994;2022-12-18T00:50:17;14.63;;;8.98;;
50683;SDS011;36654;45.042;38.994;2022-12-18T00:52:43;16.52;;;9.40;;
50683;SDS011;36654;45.042;38.994;2022-12-18T00:55:08;17.40;;;9.23;;
50683;SDS011;36654;45.042;38.994;2022-12-18T00:57:34;16.50;;;9.70;;
50683;SDS011;36654;45.042;38.994;2022-12-18T01:00:00;15.18;;;8.38;;
50683;SDS011;36654;45.042;38.994;2022-12-18T01:02:26;16.50;;;8.25;;
50683;SDS011;36654;45.042;38.994;2022-12-18T01:04:51;11.95;;;7.32;;
50683;SDS011;36654;45.042;38.994;2022-12-18T01:07:17;16.13;;;8.48;;
50683;SDS011;36654;45.042;38.994;2022-12-18T01:09:43;19.33;;;9.05;;
50683;SDS011;36654;45.042;38.994;2022-12-18T01:12:08;19.73;;;9.57;;
50683;SDS011;36654;45.042;38.994;2022-12-18T01:14:34;22.30;;;9.82;;
50683;SDS011;36654;45.042;38.994;2022-12-18T01:17:00;20.30;;;8.88;;
50683;SDS011;36654;45.042;38.994;2022-12-18T01:19:27;17.70;;;9.20;;
50683;SDS011;36654;45.042;38.994;2022-12-18T01:21:53;18.85;;;9.50;;
50683;SDS011;36654;45.042;38.994;2022-12-18T01:24:18;15.50;;;8.75;;
50683;SDS011;36654;45.042;38.994;2022-12-18T01:26:44;16.73;;;9.68;;
50683;SDS011;36654;45.042;38.994;2022-12-18T01:29:10;20.00;;;10.13;;
50683;SDS011;36654;45.042;38.994;2022-12-18T01:31:36;17.08;;;8.40;;
50683;SDS011;36654;45.042;38.994;2022-12-18T01:34:02;16.13;;;9.02;;
50683;SDS011;36654;45.042;38.994;2022-12-18T01:36:33;16.38;;;9.25;;
50683;SDS011;36654;45.042;38.994;2022-12-18T01:39:01;14.93;;;9.13;;
50683;SDS011;36654;45.042;38.994;2022-12-18T01:41:30;13.80;;;8.48;;
50683;SDS011;36654;45.042;38.994;2022-12-18T01:50:42;17.15;;;9.50;;
50683;SDS011;36654;45.042;38.994;2022-12-18T01:56:30;13.88;;;7.75;;
50683;SDS011;36654;45.042;38.994;2022-12-18T01:58:58;8.18;;;4.75;;
50683;SDS011;36654;45.042;38.994;2022-12-18T02:04:23;7.30;;;4.20;;
50683;SDS011;36654;45.042;38.994;2022-12-18T02:06:55;6.22;;;3.58;;
50683;SDS011;36654;45.042;38.994;2022-12-18T02:09:36;7.78;;;4.22;;
50683;SDS011;36654;45.042;38.994;2022-12-18T02:12:21;6.70;;;4.43;;
50683;SDS011;36654;45.042;38.994;2022-12-18T02:17:37;10.25;;;4.97;;
50683;SDS011;36654;45.042;38.994;2022-12-18T02:20:14;16.73;;;6.85;;
50683;SDS011;36654;45.042;38.994;2022-12-18T02:28:50;9.30;;;5.40;;
50683;SDS011;36654;45.042;38.994;2022-12-18T02:31:27;12.55;;;5.78;;
50683;SDS011;36654;45.042;38.994;2022-12-18T02:33:56;8.45;;;4.68;;
50683;SDS011;36654;45.042;38.994;2022-12-18T02:36:25;9.85;;;4.82;;
50683;SDS011;36654;45.042;38.994;2022-12-18T02:38:53;17.02;;;4.35;;
50683;SDS011;36654;45.042;38.994;2022-12-18T02:41:20;8.70;;;3.75;;
50683;SDS011;36654;45.042;38.994;2022-12-18T02:44:00;10.63;;;4.57;;
50683;SDS011;36654;45.042;38.994;2022-12-18T02:46:33;5.47;;;3.22;;
50683;SDS011;36654;45.042;38.994;2022-12-18T02:57:46;8.80;;;4.88;;
50683;SDS011;36654;45.042;38.994;2022-12-18T03:03:05;9.15;;;5.45;;
50683;SDS011;36654;45.042;38.994;2022-12-18T03:05:41;7.70;;;4.25;;
50683;SDS011;36654;45.042;38.994;2022-12-18T03:08:17;12.05;;;4.70;;
50683;SDS011;36654;45.042;38.994;2022-12-18T03:11:06;8.32;;;4.22;;
50683;SDS011;36654;45.042;38.994;2022-12-18T03:16:09;9.18;;;5.53;;
50683;SDS011;36654;45.042;38.994;2022-12-18T03:18:45;12.23;;;5.55;;
50683;SDS011;36654;45.042;38.994;2022-12-18T03:21:14;11.25;;;5.60;;
50683;SDS011;36654;45.042;38.994;2022-12-18T03:26:12;9.05;;;5.43;;
50683;SDS011;36654;45.042;38.994;2022-12-18T03:28:45;8.55;;;4.72;;
50683;SDS011;36654;45.042;38.994;2022-12-18T03:31:18;7.22;;;5.28;;
50683;SDS011;36654;45.042;38.994;2022-12-18T03:36:16;7.60;;;3.35;;
50683;SDS011;36654;45.042;38.994;2022-12-18T03:38:42;5.35;;;3.83;;
50683;SDS011;36654;45.042;38.994;2022-12-18T03:41:16;6.85;;;3.55;;
50683;SDS011;36654;45.042;38.994;2022-12-18T03:49:13;9.95;;;4.28;;
50683;SDS011;36654;45.042;38.994;2022-12-18T03:54:16;11.27;;;6.00;;
50683;SDS011;36654;45.042;38.994;2022-12-18T03:56:44;9.05;;;5.78;;
50683;SDS011;36654;45.042;38.994;2022-12-18T03:59:14;6.85;;;4.63;;
50683;SDS011;36654;45.042;38.994;2022-12-18T04:01:43;7.00;;;3.90;;
50683;SDS011;36654;45.042;38.994;2022-12-18T04:04:12;6.00;;;3.60;;
50683;SDS011;36654;45.042;38.994;2022-12-18T04:06:40;6.93;;;4.03;;
50683;SDS011;36654;45.042;38.994;2022-12-18T04:09:07;9.20;;;5.25;;
50683;SDS011;36654;45.042;38.994;2022-12-18T04:11:33;11.85;;;6.07;;
50683;SDS011;36654;45.042;38.994;2022-12-18T04:13:59;11.05;;;4.20;;
50683;SDS011;36654;45.042;38.994;2022-12-18T04:16:25;6.63;;;3.90;;
50683;SDS011;36654;45.042;38.994;2022-12-18T04:18:51;6.15;;;3.22;;
50683;SDS011;36654;45.042;38.994;2022-12-18T04:21:17;10.32;;;3.85;;
50683;SDS011;36654;45.042;38.994;2022-12-18T04:23:42;7.43;;;4.65;;
50683;SDS011;36654;45.042;38.994;2022-12-18T04:26:08;9.93;;;3.88;;
50683;SDS011;36654;45.042;38.994;2022-12-18T04:28:33;8.63;;;4.65;;
50683;SDS011;36654;45.042;38.994;2022-12-18T04:30:59;7.53;;;4.07;;
50683;SDS011;36654;45.042;38.994;2022-12-18T04:33:25;4.30;;;3.13;;
50683;SDS011;36654;45.042;38.994;2022-12-18T04:35:50;4.53;;;3.17;;
50683;SDS011;36654;45.042;38.994;2022-12-18T04:38:16;4.97;;;3.70;;
50683;SDS011;36654;45.042;38.994;2022-12-18T04:40:41;7.80;;;4.70;;
50683;SDS011;36654;45.042;38.994;2022-12-18T04:43:08;4.57;;;3.55;;
50683;SDS011;36654;45.042;38.994;2022-12-18T04:45:34;4.57;;;3.25;;
50683;SDS011;36654;45.042;38.994;2022-12-18T04:48:00;7.18;;;4.28;;
50683;SDS011;36654;45.042;38.994;2022-12-18T04:50:27;8.02;;;4.90;;
50683;SDS011;36654;45.042;38.994;2022-12-18T04:52:53;5.35;;;3.38;;
50683;SDS011;36654;45.042;38.994;2022-12-18T04:55:18;4.47;;;3.35;;
50683;SDS011;36654;45.042;38.994;2022-12-18T04:57:44;6.90;;;4.55;;
50683;SDS011;36654;45.042;38.994;2022-12-18T05:03:23;6.78;;;4.93;;
50683;SDS011;36654;45.042;38.994;2022-12-18T05:05:49;5.18;;;3.65;;
50683;SDS011;36654;45.042;38.994;2022-12-18T05:08:16;4.32;;;2.97;;
50683;SDS011;36654;45.042;38.994;2022-12-18T05:10:41;5.85;;;3.63;;
50683;SDS011;36654;45.042;38.994;2022-12-18T05:13:07;4.07;;;3.28;;
50683;SDS011;36654;45.042;38.994;2022-12-18T05:15:33;3.30;;;3.00;;
50683;SDS011;36654;45.042;38.994;2022-12-18T05:17:59;3.47;;;2.75;;
50683;SDS011;36654;45.042;38.994;2022-12-18T05:20:26;4.43;;;3.80;;
50683;SDS011;36654;45.042;38.994;2022-12-18T05:22:52;9.65;;;3.53;;
50683;SDS011;36654;45.042;38.994;2022-12-18T05:25:18;4.35;;;3.00;;
50683;SDS011;36654;45.042;38.994;2022-12-18T05:27:44;5.30;;;3.13;;
50683;SDS011;36654;45.042;38.994;2022-12-18T05:30:10;3.88;;;2.65;;
50683;SDS011;36654;45.042;38.994;2022-12-18T05:32:37;3.95;;;3.15;;
50683;SDS011;36654;45.042;38.994;2022-12-18T05:35:03;4.57;;;2.90;;
50683;SDS011;36654;45.042;38.994;2022-12-18T05:37:30;3.45;;;2.95;;
50683;SDS011;36654;45.042;38.994;2022-12-18T05:39:56;4.30;;;3.30;;
50683;SDS011;36654;45.042;38.994;2022-12-18T05:42:21;3.13;;;2.60;;
50683;SDS011;36654;45.042;38.994;2022-12-18T05:44:47;4.03;;;2.92;;
50683;SDS011;36654;45.042;38.994;2022-12-18T05:47:13;4.38;;;3.70;;
50683;SDS011;36654;45.042;38.994;2022-12-18T05:49:38;3.35;;;3.05;;
50683;SDS011;36654;45.042;38.994;2022-12-18T05:52:04;3.97;;;3.20;;
50683;SDS011;36654;45.042;38.994;2022-12-18T05:54:30;4.03;;;3.55;;
50683;SDS011;36654;45.042;38.994;2022-12-18T05:56:56;6.97;;;3.78;;
50683;SDS011;36654;45.042;38.994;2022-12-18T05:59:22;3.85;;;3.10;;
50683;SDS011;36654;45.042;38.994;2022-12-18T06:01:48;4.85;;;2.92;;
50683;SDS011;36654;45.042;38.994;2022-12-18T06:04:14;6.15;;;3.22;;
50683;SDS011;36654;45.042;38.994;2022-12-18T06:06:39;4.07;;;2.90;;
50683;SDS011;36654;45.042;38.994;2022-12-18T06:09:05;4.60;;;3.60;;
50683;SDS011;36654;45.042;38.994;2022-12-18T06:11:34;5.30;;;3.58;;
50683;SDS011;36654;45.042;38.994;2022-12-18T06:14:03;7.20;;;3.65;;
50683;SDS011;36654;45.042;38.994;2022-12-18T06:16:30;6.63;;;4.20;;
50683;SDS011;36654;45.042;38.994;2022-12-18T06:18:56;8.15;;;3.92;;
50683;SDS011;36654;45.042;38.994;2022-12-18T06:21:22;6.25;;;3.70;;
50683;SDS011;36654;45.042;38.994;2022-12-18T06:23:48;6.53;;;3.90;;
50683;SDS011;36654;45.042;38.994;2022-12-18T06:26:15;4.53;;;3.22;;
50683;SDS011;36654;45.042;38.994;2022-12-18T06:28:41;4.78;;;3.25;;
50683;SDS011;36654;45.042;38.994;2022-12-18T06:31:07;5.53;;;3.10;;
50683;SDS011;36654;45.042;38.994;2022-12-18T06:33:33;4.63;;;3.20;;
50683;SDS011;36654;45.042;38.994;2022-12-18T06:36:03;4.78;;;2.80;;
50683;SDS011;36654;45.042;38.994;2022-12-18T06:38:32;5.78;;;3.35;;
50683;SDS011;36654;45.042;38.994;2022-12-18T06:40:59;5.85;;;3.35;;
50683;SDS011;36654;45.042;38.994;2022-12-18T06:43:24;6.65;;;3.95;;
50683;SDS011;36654;45.042;38.994;2022-12-18T06:45:58;8.38;;;4.40;;
50683;SDS011;36654;45.042;38.994;2022-12-18T06:48:24;8.15;;;4.15;;
50683;SDS011;36654;45.042;38.994;2022-12-18T06:50:50;5.07;;;3.42;;
50683;SDS011;36654;45.042;38.994;2022-12-18T06:53:15;5.40;;;2.95;;
50683;SDS011;36654;45.042;38.994;2022-12-18T06:55:41;5.00;;;3.53;;
50683;SDS011;36654;45.042;38.994;2022-12-18T06:58:07;6.22;;;3.67;;
50683;SDS011;36654;45.042;38.994;2022-12-18T07:00:33;5.50;;;3.30;;
50683;SDS011;36654;45.042;38.994;2022-12-18T07:02:59;7.22;;;3.72;;
50683;SDS011;36654;45.042;38.994;2022-12-18T07:05:25;3.83;;;3.35;;
50683;SDS011;36654;45.042;38.994;2022-12-18T07:07:50;5.28;;;3.20;;
50683;SDS011;36654;45.042;38.994;2022-12-18T07:10:18;7.78;;;3.50;;
50683;SDS011;36654;45.042;38.994;2022-12-18T07:12:44;8.02;;;3.20;;
50683;SDS011;36654;45.042;38.994;2022-12-18T07:15:09;5.55;;;3.22;;
50683;SDS011;36654;45.042;38.994;2022-12-18T07:17:36;5.25;;;3.08;;
50683;SDS011;36654;45.042;38.994;2022-12-18T07:20:02;7.28;;;3.22;;
50683;SDS011;36654;45.042;38.994;2022-12-18T07:22:28;5.63;;;3.00;;
50683;SDS011;36654;45.042;38.994;2022-12-18T07:24:53;8.80;;;3.05;;
50683;SDS011;36654;45.042;38.994;2022-12-18T07:27:20;6.93;;;3.25;;
50683;SDS011;36654;45.042;38.994;2022-12-18T07:29:47;6.47;;;3.22;;
50683;SDS011;36654;45.042;38.994;2022-12-18T07:32:12;6.72;;;3.00;;
50683;SDS011;36654;45.042;38.994;2022-12-18T07:34:39;5.45;;;3.15;;
50683;SDS011;36654;45.042;38.994;2022-12-18T07:37:04;9.52;;;3.60;;
50683;SDS011;36654;45.042;38.994;2022-12-18T07:39:30;10.45;;;4.75;;
50683;SDS011;36654;45.042;38.994;2022-12-18T07:41:56;7.00;;;4.15;;
50683;SDS011;36654;45.042;38.994;2022-12-18T07:44:40;9.38;;;4.15;;
50683;SDS011;36654;45.042;38.994;2022-12-18T07:47:06;10.05;;;4.22;;
50683;SDS011;36654;45.042;38.994;2022-12-18T07:49:32;9.80;;;4.60;;
50683;SDS011;36654;45.042;38.994;2022-12-18T07:51:57;12.90;;;3.72;;
50683;SDS011;36654;45.042;38.994;2022-12-18T07:54:23;10.80;;;3.80;;
50683;SDS011;36654;45.042;38.994;2022-12-18T07:56:50;9.18;;;3.45;;
50683;SDS011;36654;45.042;38.994;2022-12-18T07:59:17;4.35;;;2.90;;
50683;SDS011;36654;45.042;38.994;2022-12-18T08:01:43;8.38;;;2.97;;
50683;SDS011;36654;45.042;38.994;2022-12-18T08:04:09;15.82;;;3.88;;
50683;SDS011;36654;45.042;38.994;2022-12-18T08:06:34;9.27;;;3.42;;
50683;SDS011;36654;45.042;38.994;2022-12-18T08:09:00;5.65;;;3.00;;
50683;SDS011;36654;45.042;38.994;2022-12-18T08:11:26;5.50;;;2.83;;
50683;SDS011;36654;45.042;38.994;2022-12-18T08:13:56;3.60;;;2.05;;
50683;SDS011;36654;45.042;38.994;2022-12-18T08:16:23;5.45;;;2.80;;
50683;SDS011;36654;45.042;38.994;2022-12-18T08:18:52;4.47;;;2.53;;
50683;SDS011;36654;45.042;38.994;2022-12-18T08:21:23;3.88;;;3.00;;
50683;SDS011;36654;45.042;38.994;2022-12-18T08:23:51;6.68;;;3.20;;
50683;SDS011;36654;45.042;38.994;2022-12-18T08:26:19;5.88;;;2.97;;
50683;SDS011;36654;45.042;38.994;2022-12-18T08:28:45;3.17;;;2.55;;
50683;SDS011;36654;45.042;38.994;2022-12-18T08:31:11;7.72;;;3.10;;
50683;SDS011;36654;45.042;38.994;2022-12-18T08:33:37;5.60;;;3.20;;
50683;SDS011;36654;45.042;38.994;2022-12-18T08:36:04;4.20;;;3.03;;
50683;SDS011;36654;45.042;38.994;2022-12-18T08:38:30;7.53;;;3.08;;
50683;SDS011;36654;45.042;38.994;2022-12-18T08:41:00;5.82;;;2.90;;
50683;SDS011;36654;45.042;38.994;2022-12-18T08:43:27;4.70;;;3.30;;
50683;SDS011;36654;45.042;38.994;2022-12-18T08:46:11;6.75;;;3.53;;
50683;SDS011;36654;45.042;38.994;2022-12-18T08:48:37;5.63;;;3.45;;
50683;SDS011;36654;45.042;38.994;2022-12-18T08:51:03;12.98;;;3.95;;
50683;SDS011;36654;45.042;38.994;2022-12-18T08:53:29;5.90;;;3.00;;
50683;SDS011;36654;45.042;38.994;2022-12-18T08:55:56;6.82;;;3.45;;
50683;SDS011;36654;45.042;38.994;2022-12-18T08:58:22;4.88;;;2.88;;
50683;SDS011;36654;45.042;38.994;2022-12-18T09:00:48;6.07;;;2.92;;
50683;SDS011;36654;45.042;38.994;2022-12-18T09:03:14;3.50;;;3.17;;
50683;SDS011;36654;45.042;38.994;2022-12-18T09:05:41;4.85;;;2.65;;
50683;SDS011;36654;45.042;38.994;2022-12-18T09:08:10;3.75;;;2.58;;
50683;SDS011;36654;45.042;38.994;2022-12-18T09:10:41;3.47;;;2.95;;
50683;SDS011;36654;45.042;38.994;2022-12-18T09:13:08;3.97;;;2.97;;
50683;SDS011;36654;45.042;38.994;2022-12-18T09:15:39;3.75;;;2.85;;
50683;SDS011;36654;45.042;38.994;2022-12-18T09:18:13;5.00;;;2.80;;
50683;SDS011;36654;45.042;38.994;2022-12-18T09:20:40;3.78;;;2.70;;
50683;SDS011;36654;45.042;38.994;2022-12-18T09:23:06;5.43;;;2.58;;
50683;SDS011;36654;45.042;38.994;2022-12-18T09:25:33;6.05;;;2.78;;
50683;SDS011;36654;45.042;38.994;2022-12-18T09:28:04;4.22;;;2.95;;
50683;SDS011;36654;45.042;38.994;2022-12-18T09:30:36;3.60;;;2.67;;
50683;SDS011;36654;45.042;38.994;2022-12-18T09:33:03;5.78;;;3.15;;
50683;SDS011;36654;45.042;38.994;2022-12-18T09:35:29;6.32;;;2.90;;
50683;SDS011;36654;45.042;38.994;2022-12-18T09:37:54;5.18;;;3.10;;
50683;SDS011;36654;45.042;38.994;2022-12-18T09:40:22;4.13;;;2.70;;
50683;SDS011;36654;45.042;38.994;2022-12-18T09:42:59;4.55;;;2.60;;
50683;SDS011;36654;45.042;38.994;2022-12-18T09:45:30;4.88;;;2.95;;
50683;SDS011;36654;45.042;38.994;2022-12-18T09:48:04;6.90;;;2.90;;
50683;SDS011;36654;45.042;38.994;2022-12-18T09:50:35;5.22;;;3.25;;
50683;SDS011;36654;45.042;38.994;2022-12-18T09:53:05;4.10;;;2.95;;
50683;SDS011;36654;45.042;38.994;2022-12-18T09:55:37;7.47;;;2.97;;
50683;SDS011;36654;45.042;38.994;2022-12-18T09:58:07;4.25;;;3.08;;
50683;SDS011;36654;45.042;38.994;2022-12-18T10:00:37;7.38;;;3.10;;
50683;SDS011;36654;45.042;38.994;2022-12-18T10:03:09;5.03;;;3.13;;
50683;SDS011;36654;45.042;38.994;2022-12-18T10:08:10;5.57;;;3.22;;
50683;SDS011;36654;45.042;38.994;2022-12-18T10:10:51;6.78;;;3.30;;
50683;SDS011;36654;45.042;38.994;2022-12-18T10:13:31;4.40;;;2.92;;
50683;SDS011;36654;45.042;38.994;2022-12-18T10:21:30;4.50;;;3.25;;
50683;SDS011;36654;45.042;38.994;2022-12-18T10:26:36;6.18;;;3.60;;
50683;SDS011;36654;45.042;38.994;2022-12-18T10:29:04;6.15;;;3.47;;
50683;SDS011;36654;45.042;38.994;2022-12-18T10:31:37;4.70;;;2.90;;
50683;SDS011;36654;45.042;38.994;2022-12-18T10:34:02;6.45;;;3.13;;
50683;SDS011;36654;45.042;38.994;2022-12-18T10:36:28;4.75;;;3.13;;
50683;SDS011;36654;45.042;38.994;2022-12-18T10:38:58;3.95;;;2.90;;
50683;SDS011;36654;45.042;38.994;2022-12-18T10:41:40;3.67;;;3.30;;
50683;SDS011;36654;45.042;38.994;2022-12-18T10:44:21;5.60;;;3.13;;
50683;SDS011;36654;45.042;38.994;2022-12-18T10:46:53;5.47;;;2.97;;
50683;SDS011;36654;45.042;38.994;2022-12-18T10:49:27;5.72;;;3.65;;
50683;SDS011;36654;45.042;38.994;2022-12-18T10:55:01;8.05;;;4.07;;
50683;SDS011;36654;45.042;38.994;2022-12-18T10:57:36;10.65;;;5.05;;
50683;SDS011;36654;45.042;38.994;2022-12-18T11:02:49;15.00;;;7.45;;
50683;SDS011;36654;45.042;38.994;2022-12-18T11:05:23;12.88;;;6.22;;
50683;SDS011;36654;45.042;38.994;2022-12-18T11:07:51;11.63;;;6.45;;
50683;SDS011;36654;45.042;38.994;2022-12-18T11:12:47;11.77;;;6.00;;
50683;SDS011;36654;45.042;38.994;2022-12-18T11:15:19;7.90;;;5.45;;
50683;SDS011;36654;45.042;38.994;2022-12-18T11:17:49;11.82;;;6.32;;
50683;SDS011;36654;45.042;38.994;2022-12-18T11:20:25;12.27;;;6.40;;
50683;SDS011;36654;45.042;38.994;2022-12-18T11:23:05;14.60;;;7.45;;
50683;SDS011;36654;45.042;38.994;2022-12-18T11:25:38;13.88;;;7.32;;
50683;SDS011;36654;45.042;38.994;2022-12-18T11:28:05;18.98;;;9.20;;
50683;SDS011;36654;45.042;38.994;2022-12-18T11:30:50;16.20;;;8.65;;
50683;SDS011;36654;45.042;38.994;2022-12-18T11:33:37;15.10;;;8.38;;
50683;SDS011;36654;45.042;38.994;2022-12-18T11:36:07;16.00;;;8.82;;
50683;SDS011;36654;45.042;38.994;2022-12-18T11:38:41;12.30;;;7.07;;
50683;SDS011;36654;45.042;38.994;2022-12-18T11:41:27;12.32;;;6.28;;
50683;SDS011;36654;45.042;38.994;2022-12-18T11:44:31;11.90;;;6.47;;
50683;SDS011;36654;45.042;38.994;2022-12-18T11:47:05;14.40;;;7.38;;
50683;SDS011;36654;45.042;38.994;2022-12-18T11:49:38;12.80;;;6.82;;
50683;SDS011;36654;45.042;38.994;2022-12-18T11:52:11;12.82;;;7.95;;
50683;SDS011;36654;45.042;38.994;2022-12-18T11:54:43;13.30;;;7.57;;
50683;SDS011;36654;45.042;38.994;2022-12-18T12:00:13;11.80;;;7.88;;
50683;SDS011;36654;45.042;38.994;2022-12-18T12:05:40;15.50;;;8.75;;
50683;SDS011;36654;45.042;38.994;2022-12-18T12:08:49;14.50;;;8.73;;
50683;SDS011;36654;45.042;38.994;2022-12-18T12:11:18;18.67;;;8.68;;
50683;SDS011;36654;45.042;38.994;2022-12-18T12:16:54;16.67;;;8.70;;
50683;SDS011;36654;45.042;38.994;2022-12-18T12:30:21;19.88;;;12.02;;
50683;SDS011;36654;45.042;38.994;2022-12-18T12:39:03;28.90;;;14.18;;
50683;SDS011;36654;45.042;38.994;2022-12-18T12:41:33;22.55;;;13.55;;
50683;SDS011;36654;45.042;38.994;2022-12-18T12:44:29;24.98;;;14.00;;
50683;SDS011;36654;45.042;38.994;2022-12-18T12:47:00;29.33;;;15.25;;
50683;SDS011;36654;45.042;38.994;2022-12-18T12:49:39;25.27;;;13.15;;
50683;SDS011;36654;45.042;38.994;2022-12-18T12:52:07;29.00;;;15.13;;
50683;SDS011;36654;45.042;38.994;2022-12-18T12:54:39;23.02;;;11.82;;
50683;SDS011;36654;45.042;38.994;2022-12-18T12:57:11;22.98;;;12.85;;
50683;SDS011;36654;45.042;38.994;2022-12-18T13:02:35;20.27;;;13.38;;
50683;SDS011;36654;45.042;38.994;2022-12-18T13:10:26;21.85;;;14.13;;
50683;SDS011;36654;45.042;38.994;2022-12-18T13:15:33;27.60;;;13.73;;
50683;SDS011;36654;45.042;38.994;2022-12-18T13:20:34;21.13;;;13.85;;
50683;SDS011;36654;45.042;38.994;2022-12-18T13:33:44;22.38;;;13.30;;
50683;SDS011;36654;45.042;38.994;2022-12-18T13:36:15;17.25;;;11.85;;
50683;SDS011;36654;45.042;38.994;2022-12-18T13:38:55;18.23;;;11.95;;
50683;SDS011;36654;45.042;38.994;2022-12-18T13:41:36;20.63;;;14.07;;
50683;SDS011;36654;45.042;38.994;2022-12-18T13:46:57;18.88;;;11.10;;
50683;SDS011;36654;45.042;38.994;2022-12-18T13:51:58;20.55;;;11.55;;
50683;SDS011;36654;45.042;38.994;2022-12-18T13:56:50;26.13;;;12.90;;
50683;SDS011;36654;45.042;38.994;2022-12-18T13:59:20;27.52;;;14.20;;
50683;SDS011;36654;45.042;38.994;2022-12-18T14:02:07;27.55;;;12.80;;
50683;SDS011;36654;45.042;38.994;2022-12-18T14:04:38;26.92;;;14.35;;
50683;SDS011;36654;45.042;38.994;2022-12-18T14:07:05;26.48;;;13.23;;
50683;SDS011;36654;45.042;38.994;2022-12-18T14:09:39;24.63;;;13.10;;
50683;SDS011;36654;45.042;38.994;2022-12-18T14:15:01;21.13;;;11.32;;
50683;SDS011;36654;45.042;38.994;2022-12-18T14:17:31;23.15;;;12.50;;
50683;SDS011;36654;45.042;38.994;2022-12-18T14:19:57;21.75;;;11.15;;
50683;SDS011;36654;45.042;38.994;2022-12-18T14:22:24;24.80;;;11.23;;
50683;SDS011;36654;45.042;38.994;2022-12-18T14:30:43;19.08;;;9.85;;
50683;SDS011;36654;45.042;38.994;2022-12-18T14:33:15;19.73;;;9.73;;
50683;SDS011;36654;45.042;38.994;2022-12-18T14:40:51;16.83;;;8.23;;
50683;SDS011;36654;45.042;38.994;2022-12-18T14:43:29;15.07;;;8.27;;
50683;SDS011;36654;45.042;38.994;2022-12-18T14:45:58;17.38;;;8.20;;
50683;SDS011;36654;45.042;38.994;2022-12-18T14:51:06;20.98;;;10.60;;
50683;SDS011;36654;45.042;38.994;2022-12-18T14:58:46;21.75;;;8.63;;
50683;SDS011;36654;45.042;38.994;2022-12-18T15:01:27;16.38;;;9.13;;
50683;SDS011;36654;45.042;38.994;2022-12-18T15:04:01;16.17;;;7.68;;
50683;SDS011;36654;45.042;38.994;2022-12-18T15:06:29;15.38;;;7.57;;
50683;SDS011;36654;45.042;38.994;2022-12-18T15:08:58;14.50;;;7.68;;
50683;SDS011;36654;45.042;38.994;2022-12-18T15:14:21;17.02;;;6.70;;
50683;SDS011;36654;45.042;38.994;2022-12-18T15:17:00;18.73;;;8.02;;
50683;SDS011;36654;45.042;38.994;2022-12-18T15:19:39;17.35;;;7.40;;
50683;SDS011;36654;45.042;38.994;2022-12-18T15:24:59;22.08;;;9.57;;
50683;SDS011;36654;45.042;38.994;2022-12-18T15:32:35;25.13;;;9.98;;
50683;SDS011;36654;45.042;38.994;2022-12-18T15:37:39;20.48;;;10.38;;
50683;SDS011;36654;45.042;38.994;2022-12-18T15:42:31;16.58;;;8.77;;
50683;SDS011;36654;45.042;38.994;2022-12-18T15:45:15;18.77;;;8.63;;
50683;SDS011;36654;45.042;38.994;2022-12-18T15:47:40;14.45;;;7.60;;
50683;SDS011;36654;45.042;38.994;2022-12-18T15:50:09;17.83;;;7.93;;
50683;SDS011;36654;45.042;38.994;2022-12-18T15:52:45;21.17;;;9.38;;
50683;SDS011;36654;45.042;38.994;2022-12-18T15:55:16;15.68;;;8.05;;
50683;SDS011;36654;45.042;38.994;2022-12-18T15:58:03;16.58;;;8.35;;
50683;SDS011;36654;45.042;38.994;2022-12-18T16:00:31;14.95;;;8.18;;
50683;SDS011;36654;45.042;38.994;2022-12-18T16:02:57;14.63;;;8.60;;
50683;SDS011;36654;45.042;38.994;2022-12-18T16:05:23;17.65;;;8.45;;
50683;SDS011;36654;45.042;38.994;2022-12-18T16:07:49;17.48;;;9.77;;
50683;SDS011;36654;45.042;38.994;2022-12-18T16:10:15;20.85;;;11.65;;
50683;SDS011;36654;45.042;38.994;2022-12-18T16:12:40;24.00;;;12.43;;
50683;SDS011;36654;45.042;38.994;2022-12-18T16:15:07;20.42;;;11.27;;
50683;SDS011;36654;45.042;38.994;2022-12-18T16:17:35;22.38;;;11.32;;
50683;SDS011;36654;45.042;38.994;2022-12-18T16:20:01;20.10;;;12.07;;
50683;SDS011;36654;45.042;38.994;2022-12-18T16:22:27;20.80;;;11.77;;
50683;SDS011;36654;45.042;38.994;2022-12-18T16:24:55;20.92;;;11.55;;
50683;SDS011;36654;45.042;38.994;2022-12-18T16:27:21;18.33;;;12.57;;
50683;SDS011;36654;45.042;38.994;2022-12-18T16:29:48;25.75;;;13.20;;
50683;SDS011;36654;45.042;38.994;2022-12-18T16:32:15;23.50;;;13.55;;
50683;SDS011;36654;45.042;38.994;2022-12-18T16:34:43;25.42;;;13.60;;
50683;SDS011;36654;45.042;38.994;2022-12-18T16:37:10;24.95;;;15.18;;
50683;SDS011;36654;45.042;38.994;2022-12-18T16:39:37;24.08;;;12.38;;
50683;SDS011;36654;45.042;38.994;2022-12-18T16:44:41;18.27;;;10.82;;
50683;SDS011;36654;45.042;38.994;2022-12-18T16:47:08;15.20;;;9.70;;
50683;SDS011;36654;45.042;38.994;2022-12-18T16:49:34;17.45;;;10.43;;
50683;SDS011;36654;45.042;38.994;2022-12-18T16:51:59;15.77;;;9.30;;
50683;SDS011;36654;45.042;38.994;2022-12-18T16:54:27;13.95;;;9.00;;
50683;SDS011;36654;45.042;38.994;2022-12-18T16:56:54;15.02;;;10.88;;
50683;SDS011;36654;45.042;38.994;2022-12-18T16:59:20;16.52;;;10.32;;
50683;SDS011;36654;45.042;38.994;2022-12-18T17:01:46;15.52;;;10.40;;
50683;SDS011;36654;45.042;38.994;2022-12-18T17:04:12;16.63;;;10.43;;
50683;SDS011;36654;45.042;38.994;2022-12-18T17:06:39;17.23;;;11.38;;
50683;SDS011;36654;45.042;38.994;2022-12-18T17:09:07;17.38;;;9.93;;
50683;SDS011;36654;45.042;38.994;2022-12-18T17:11:35;18.42;;;11.30;;
50683;SDS011;36654;45.042;38.994;2022-12-18T17:14:10;19.95;;;11.88;;
50683;SDS011;36654;45.042;38.994;2022-12-18T17:16:38;19.50;;;11.90;;
50683;SDS011;36654;45.042;38.994;2022-12-18T17:19:04;18.80;;;11.52;;
50683;SDS011;36654;45.042;38.994;2022-12-18T17:21:30;18.98;;;11.85;;
50683;SDS011;36654;45.042;38.994;2022-12-18T17:23:58;21.95;;;12.93;;
50683;SDS011;36654;45.042;38.994;2022-12-18T17:26:24;19.70;;;11.57;;
50683;SDS011;36654;45.042;38.994;2022-12-18T17:28:54;18.70;;;11.70;;